Swansea, California
Current Conditions -  °F | °C
As of 1:56 AM on Friday 31 Oct 2014 (Local Time) from KBIH Reporting Station
Clear Clear  
Wind Chill: 16°   Ceiling: Unl
Heat Index: 16°   Visibility: 10mi
Dew Point: -8°   Wind: 16mph
Humidity: 18%   Direction: 170°S
Pressure: 29.93"   Gusts: NA
Location:  36.6126°N, 118.162°W
Report Text: KBIH 310856Z AUTO 17014KT 10SM CLR 16/M08 A2993 RMK AO2 SLP091 T01611083 56010
Loading
Personal Weather Stations






























Interactive Weather Map
Tropical Storm Tracking
New forecast layout! Learn more

10-Day Weather Forecast

Advertisements
Track Severe Weather on mobile